sensor_id;sensor_type;location;lat;lon;timestamp;P1;durP1;ratioP1;P2;durP2;ratioP2
20146;SDS011;10234;50.856;15.716;2023-01-29T00:01:53;19.33;;;10.90;;
20146;SDS011;10234;50.856;15.716;2023-01-29T00:04:21;20.25;;;11.77;;
20146;SDS011;10234;50.856;15.716;2023-01-29T00:06:49;14.48;;;9.82;;
20146;SDS011;10234;50.856;15.716;2023-01-29T00:09:16;20.08;;;12.40;;
20146;SDS011;10234;50.856;15.716;2023-01-29T00:11:43;18.70;;;11.75;;
20146;SDS011;10234;50.856;15.716;2023-01-29T00:14:09;13.18;;;7.78;;
20146;SDS011;10234;50.856;15.716;2023-01-29T00:16:36;18.95;;;10.63;;
20146;SDS011;10234;50.856;15.716;2023-01-29T00:19:03;17.33;;;10.88;;
20146;SDS011;10234;50.856;15.716;2023-01-29T00:21:32;13.63;;;8.98;;
20146;SDS011;10234;50.856;15.716;2023-01-29T00:23:59;22.02;;;12.75;;
20146;SDS011;10234;50.856;15.716;2023-01-29T00:26:26;15.45;;;9.55;;
20146;SDS011;10234;50.856;15.716;2023-01-29T00:28:53;22.42;;;12.73;;
20146;SDS011;10234;50.856;15.716;2023-01-29T00:31:21;12.10;;;9.48;;
20146;SDS011;10234;50.856;15.716;2023-01-29T00:33:49;9.93;;;7.30;;
20146;SDS011;10234;50.856;15.716;2023-01-29T00:36:16;11.18;;;6.25;;
20146;SDS011;10234;50.856;15.716;2023-01-29T00:38:46;8.05;;;5.80;;
20146;SDS011;10234;50.856;15.716;2023-01-29T00:41:18;9.57;;;6.00;;
20146;SDS011;10234;50.856;15.716;2023-01-29T00:44:04;7.38;;;5.45;;
20146;SDS011;10234;50.856;15.716;2023-01-29T00:46:49;9.48;;;5.63;;
20146;SDS011;10234;50.856;15.716;2023-01-29T00:49:15;11.15;;;7.20;;
20146;SDS011;10234;50.856;15.716;2023-01-29T00:51:42;7.85;;;5.50;;
20146;SDS011;10234;50.856;15.716;2023-01-29T00:54:30;7.07;;;5.35;;
20146;SDS011;10234;50.856;15.716;2023-01-29T00:56:57;9.02;;;5.07;;
20146;SDS011;10234;50.856;15.716;2023-01-29T00:59:24;9.18;;;5.85;;
20146;SDS011;10234;50.856;15.716;2023-01-29T01:01:51;13.10;;;6.78;;
20146;SDS011;10234;50.856;15.716;2023-01-29T01:04:35;9.15;;;5.03;;
20146;SDS011;10234;50.856;15.716;2023-01-29T01:07:02;8.27;;;4.82;;
20146;SDS011;10234;50.856;15.716;2023-01-29T01:09:30;7.82;;;4.78;;
20146;SDS011;10234;50.856;15.716;2023-01-29T01:12:14;6.37;;;4.40;;
20146;SDS011;10234;50.856;15.716;2023-01-29T01:14:41;6.97;;;5.00;;
20146;SDS011;10234;50.856;15.716;2023-01-29T01:17:08;8.30;;;4.70;;
20146;SDS011;10234;50.856;15.716;2023-01-29T01:19:35;6.00;;;4.20;;
20146;SDS011;10234;50.856;15.716;2023-01-29T01:22:02;11.10;;;4.05;;
20146;SDS011;10234;50.856;15.716;2023-01-29T01:24:31;11.25;;;4.72;;
20146;SDS011;10234;50.856;15.716;2023-01-29T01:26:57;7.40;;;4.53;;
20146;SDS011;10234;50.856;15.716;2023-01-29T01:29:24;6.35;;;4.00;;
20146;SDS011;10234;50.856;15.716;2023-01-29T01:31:52;7.50;;;4.38;;
20146;SDS011;10234;50.856;15.716;2023-01-29T01:34:19;5.18;;;3.85;;
20146;SDS011;10234;50.856;15.716;2023-01-29T01:36:46;6.93;;;4.32;;
20146;SDS011;10234;50.856;15.716;2023-01-29T01:39:13;4.43;;;3.75;;
20146;SDS011;10234;50.856;15.716;2023-01-29T01:41:41;6.18;;;3.70;;
20146;SDS011;10234;50.856;15.716;2023-01-29T01:47:08;6.97;;;3.88;;
20146;SDS011;10234;50.856;15.716;2023-01-29T01:49:35;7.43;;;4.25;;
20146;SDS011;10234;50.856;15.716;2023-01-29T01:52:02;7.70;;;4.40;;
20146;SDS011;10234;50.856;15.716;2023-01-29T01:54:30;6.22;;;4.28;;
20146;SDS011;10234;50.856;15.716;2023-01-29T01:57:00;6.65;;;4.18;;
20146;SDS011;10234;50.856;15.716;2023-01-29T01:59:35;8.77;;;4.10;;
20146;SDS011;10234;50.856;15.716;2023-01-29T02:02:05;5.43;;;4.10;;
20146;SDS011;10234;50.856;15.716;2023-01-29T02:04:50;9.60;;;5.60;;
20146;SDS011;10234;50.856;15.716;2023-01-29T02:07:38;9.23;;;6.43;;
20146;SDS011;10234;50.856;15.716;2023-01-29T02:10:24;8.13;;;4.57;;
20146;SDS011;10234;50.856;15.716;2023-01-29T02:12:56;2.50;;;2.30;;
20146;SDS011;10234;50.856;15.716;2023-01-29T02:15:23;3.88;;;3.38;;
20146;SDS011;10234;50.856;15.716;2023-01-29T02:17:50;3.67;;;2.83;;
20146;SDS011;10234;50.856;15.716;2023-01-29T02:20:18;3.55;;;3.25;;
20146;SDS011;10234;50.856;15.716;2023-01-29T02:25:50;9.00;;;4.93;;
20146;SDS011;10234;50.856;15.716;2023-01-29T02:28:37;5.47;;;4.80;;
20146;SDS011;10234;50.856;15.716;2023-01-29T02:31:14;5.63;;;4.68;;
20146;SDS011;10234;50.856;15.716;2023-01-29T02:33:47;6.85;;;4.38;;
20146;SDS011;10234;50.856;15.716;2023-01-29T02:36:23;5.07;;;4.40;;
20146;SDS011;10234;50.856;15.716;2023-01-29T02:38:59;7.97;;;5.93;;
20146;SDS011;10234;50.856;15.716;2023-01-29T02:41:33;8.15;;;5.43;;
20146;SDS011;10234;50.856;15.716;2023-01-29T02:44:09;8.93;;;5.88;;
20146;SDS011;10234;50.856;15.716;2023-01-29T02:46:48;7.28;;;4.43;;
20146;SDS011;10234;50.856;15.716;2023-01-29T02:49:22;4.68;;;4.18;;
20146;SDS011;10234;50.856;15.716;2023-01-29T02:51:58;5.63;;;4.75;;
20146;SDS011;10234;50.856;15.716;2023-01-29T02:54:30;7.15;;;4.80;;
20146;SDS011;10234;50.856;15.716;2023-01-29T02:57:03;6.07;;;5.30;;
20146;SDS011;10234;50.856;15.716;2023-01-29T02:59:42;8.00;;;4.50;;
20146;SDS011;10234;50.856;15.716;2023-01-29T03:02:14;8.02;;;6.07;;
20146;SDS011;10234;50.856;15.716;2023-01-29T03:04:45;7.60;;;5.53;;
20146;SDS011;10234;50.856;15.716;2023-01-29T03:07:21;8.35;;;5.30;;
20146;SDS011;10234;50.856;15.716;2023-01-29T03:10:18;5.88;;;4.22;;
20146;SDS011;10234;50.856;15.716;2023-01-29T03:12:50;6.15;;;4.55;;
20146;SDS011;10234;50.856;15.716;2023-01-29T03:15:24;6.65;;;4.72;;
20146;SDS011;10234;50.856;15.716;2023-01-29T03:17:56;9.10;;;5.57;;
20146;SDS011;10234;50.856;15.716;2023-01-29T03:20:28;5.65;;;4.82;;
20146;SDS011;10234;50.856;15.716;2023-01-29T03:23:00;8.57;;;4.40;;
20146;SDS011;10234;50.856;15.716;2023-01-29T03:25:31;6.57;;;5.38;;
20146;SDS011;10234;50.856;15.716;2023-01-29T03:28:18;8.13;;;5.73;;
20146;SDS011;10234;50.856;15.716;2023-01-29T03:31:05;5.95;;;3.92;;
20146;SDS011;10234;50.856;15.716;2023-01-29T03:33:57;7.65;;;5.72;;
20146;SDS011;10234;50.856;15.716;2023-01-29T03:36:31;5.53;;;4.85;;
20146;SDS011;10234;50.856;15.716;2023-01-29T03:39:03;5.05;;;3.97;;
20146;SDS011;10234;50.856;15.716;2023-01-29T03:41:33;6.15;;;4.45;;
20146;SDS011;10234;50.856;15.716;2023-01-29T03:44:05;8.05;;;5.18;;
20146;SDS011;10234;50.856;15.716;2023-01-29T03:46:40;6.10;;;4.18;;
20146;SDS011;10234;50.856;15.716;2023-01-29T03:49:14;6.43;;;4.50;;
20146;SDS011;10234;50.856;15.716;2023-01-29T03:51:50;7.38;;;4.90;;
20146;SDS011;10234;50.856;15.716;2023-01-29T03:54:24;6.50;;;4.50;;
20146;SDS011;10234;50.856;15.716;2023-01-29T03:56:58;4.90;;;3.63;;
20146;SDS011;10234;50.856;15.716;2023-01-29T03:59:32;7.97;;;3.55;;
20146;SDS011;10234;50.856;15.716;2023-01-29T04:02:04;5.45;;;3.85;;
20146;SDS011;10234;50.856;15.716;2023-01-29T04:04:35;4.60;;;3.83;;
20146;SDS011;10234;50.856;15.716;2023-01-29T04:07:05;5.63;;;3.78;;
20146;SDS011;10234;50.856;15.716;2023-01-29T04:09:39;4.88;;;3.70;;
20146;SDS011;10234;50.856;15.716;2023-01-29T04:12:10;11.85;;;7.20;;
20146;SDS011;10234;50.856;15.716;2023-01-29T04:14:42;9.27;;;6.77;;
20146;SDS011;10234;50.856;15.716;2023-01-29T04:17:11;10.03;;;7.83;;
20146;SDS011;10234;50.856;15.716;2023-01-29T04:19:41;7.13;;;5.53;;
20146;SDS011;10234;50.856;15.716;2023-01-29T04:22:11;4.97;;;4.30;;
20146;SDS011;10234;50.856;15.716;2023-01-29T04:24:42;6.17;;;4.97;;
20146;SDS011;10234;50.856;15.716;2023-01-29T04:27:14;5.95;;;4.22;;
20146;SDS011;10234;50.856;15.716;2023-01-29T04:29:50;6.28;;;4.03;;
20146;SDS011;10234;50.856;15.716;2023-01-29T04:32:30;5.90;;;4.30;;
20146;SDS011;10234;50.856;15.716;2023-01-29T04:35:07;5.68;;;3.67;;
20146;SDS011;10234;50.856;15.716;2023-01-29T04:37:43;7.60;;;4.78;;
20146;SDS011;10234;50.856;15.716;2023-01-29T04:40:20;10.53;;;5.17;;
20146;SDS011;10234;50.856;15.716;2023-01-29T04:42:56;8.02;;;5.25;;
20146;SDS011;10234;50.856;15.716;2023-01-29T04:45:31;5.95;;;4.13;;
20146;SDS011;10234;50.856;15.716;2023-01-29T04:48:12;5.70;;;4.68;;
20146;SDS011;10234;50.856;15.716;2023-01-29T04:50:45;16.27;;;7.47;;
20146;SDS011;10234;50.856;15.716;2023-01-29T04:53:21;13.67;;;5.83;;
20146;SDS011;10234;50.856;15.716;2023-01-29T04:55:52;14.20;;;6.80;;
20146;SDS011;10234;50.856;15.716;2023-01-29T04:58:25;9.93;;;5.47;;
20146;SDS011;10234;50.856;15.716;2023-01-29T05:00:58;8.90;;;5.10;;
20146;SDS011;10234;50.856;15.716;2023-01-29T05:03:27;6.57;;;4.37;;
20146;SDS011;10234;50.856;15.716;2023-01-29T05:05:56;4.87;;;4.13;;
20146;SDS011;10234;50.856;15.716;2023-01-29T05:08:25;7.10;;;4.40;;
20146;SDS011;10234;50.856;15.716;2023-01-29T05:10:55;8.40;;;4.87;;
20146;SDS011;10234;50.856;15.716;2023-01-29T05:13:25;7.20;;;4.30;;
20146;SDS011;10234;50.856;15.716;2023-01-29T05:15:56;6.07;;;4.57;;
20146;SDS011;10234;50.856;15.716;2023-01-29T05:18:27;6.77;;;4.43;;
20146;SDS011;10234;50.856;15.716;2023-01-29T05:20:55;7.27;;;4.90;;
20146;SDS011;10234;50.856;15.716;2023-01-29T05:23:23;8.07;;;4.33;;
20146;SDS011;10234;50.856;15.716;2023-01-29T05:25:50;6.20;;;4.77;;
20146;SDS011;10234;50.856;15.716;2023-01-29T05:28:17;7.53;;;4.50;;
20146;SDS011;10234;50.856;15.716;2023-01-29T05:30:45;5.97;;;4.70;;
20146;SDS011;10234;50.856;15.716;2023-01-29T05:33:14;6.03;;;4.47;;
20146;SDS011;10234;50.856;15.716;2023-01-29T05:35:42;6.17;;;4.30;;
20146;SDS011;10234;50.856;15.716;2023-01-29T05:38:09;6.83;;;4.67;;
20146;SDS011;10234;50.856;15.716;2023-01-29T05:40:36;7.37;;;4.97;;
20146;SDS011;10234;50.856;15.716;2023-01-29T05:43:03;12.33;;;6.77;;
20146;SDS011;10234;50.856;15.716;2023-01-29T05:45:31;7.13;;;5.40;;
20146;SDS011;10234;50.856;15.716;2023-01-29T05:47:59;4.67;;;3.57;;
20146;SDS011;10234;50.856;15.716;2023-01-29T05:50:26;6.30;;;4.23;;
20146;SDS011;10234;50.856;15.716;2023-01-29T05:52:57;8.03;;;4.70;;
20146;SDS011;10234;50.856;15.716;2023-01-29T05:55:24;6.87;;;4.07;;
20146;SDS011;10234;50.856;15.716;2023-01-29T05:57:53;7.33;;;4.27;;
20146;SDS011;10234;50.856;15.716;2023-01-29T06:00:20;6.83;;;4.03;;
20146;SDS011;10234;50.856;15.716;2023-01-29T06:02:47;7.07;;;4.27;;
20146;SDS011;10234;50.856;15.716;2023-01-29T06:05:16;8.50;;;4.80;;
20146;SDS011;10234;50.856;15.716;2023-01-29T06:07:43;8.90;;;4.73;;
20146;SDS011;10234;50.856;15.716;2023-01-29T06:10:11;7.17;;;4.60;;
20146;SDS011;10234;50.856;15.716;2023-01-29T06:12:39;7.93;;;4.87;;
20146;SDS011;10234;50.856;15.716;2023-01-29T06:15:07;6.53;;;4.80;;
20146;SDS011;10234;50.856;15.716;2023-01-29T06:17:34;7.77;;;5.10;;
20146;SDS011;10234;50.856;15.716;2023-01-29T06:20:01;9.00;;;5.03;;
20146;SDS011;10234;50.856;15.716;2023-01-29T06:22:30;9.47;;;5.43;;
20146;SDS011;10234;50.856;15.716;2023-01-29T06:24:58;7.90;;;5.60;;
20146;SDS011;10234;50.856;15.716;2023-01-29T06:27:25;8.07;;;5.33;;
20146;SDS011;10234;50.856;15.716;2023-01-29T06:29:52;8.37;;;6.17;;
20146;SDS011;10234;50.856;15.716;2023-01-29T06:32:19;7.97;;;5.80;;
20146;SDS011;10234;50.856;15.716;2023-01-29T06:34:46;12.57;;;6.23;;
20146;SDS011;10234;50.856;15.716;2023-01-29T06:37:13;9.80;;;5.77;;
20146;SDS011;10234;50.856;15.716;2023-01-29T06:39:42;8.40;;;5.57;;
20146;SDS011;10234;50.856;15.716;2023-01-29T06:42:09;8.67;;;6.00;;
20146;SDS011;10234;50.856;15.716;2023-01-29T06:44:36;10.27;;;6.13;;
20146;SDS011;10234;50.856;15.716;2023-01-29T06:47:05;9.97;;;6.73;;
20146;SDS011;10234;50.856;15.716;2023-01-29T06:49:32;7.80;;;5.37;;
20146;SDS011;10234;50.856;15.716;2023-01-29T06:51:59;10.17;;;5.37;;
20146;SDS011;10234;50.856;15.716;2023-01-29T06:54:26;7.70;;;5.17;;
20146;SDS011;10234;50.856;15.716;2023-01-29T06:56:54;8.53;;;6.23;;
20146;SDS011;10234;50.856;15.716;2023-01-29T06:59:21;7.43;;;4.70;;
20146;SDS011;10234;50.856;15.716;2023-01-29T07:01:48;7.70;;;4.83;;
20146;SDS011;10234;50.856;15.716;2023-01-29T07:04:15;7.13;;;4.70;;
20146;SDS011;10234;50.856;15.716;2023-01-29T07:06:43;6.33;;;4.50;;
20146;SDS011;10234;50.856;15.716;2023-01-29T07:09:10;7.90;;;4.67;;
20146;SDS011;10234;50.856;15.716;2023-01-29T07:11:38;6.27;;;4.80;;
20146;SDS011;10234;50.856;15.716;2023-01-29T07:14:06;7.23;;;4.33;;
20146;SDS011;10234;50.856;15.716;2023-01-29T07:16:33;11.47;;;4.93;;
20146;SDS011;10234;50.856;15.716;2023-01-29T07:19:00;7.80;;;5.30;;
20146;SDS011;10234;50.856;15.716;2023-01-29T07:21:27;8.40;;;4.87;;
20146;SDS011;10234;50.856;15.716;2023-01-29T07:23:54;8.60;;;5.60;;
20146;SDS011;10234;50.856;15.716;2023-01-29T07:26:21;8.97;;;5.57;;
20146;SDS011;10234;50.856;15.716;2023-01-29T07:28:48;10.03;;;6.27;;
20146;SDS011;10234;50.856;15.716;2023-01-29T07:31:17;19.50;;;9.50;;
20146;SDS011;10234;50.856;15.716;2023-01-29T07:33:44;14.47;;;9.03;;
20146;SDS011;10234;50.856;15.716;2023-01-29T07:36:11;11.20;;;7.80;;
20146;SDS011;10234;50.856;15.716;2023-01-29T07:38:38;12.50;;;7.97;;
20146;SDS011;10234;50.856;15.716;2023-01-29T07:41:05;13.23;;;6.95;;
20146;SDS011;10234;50.856;15.716;2023-01-29T07:43:32;11.10;;;7.03;;
20146;SDS011;10234;50.856;15.716;2023-01-29T07:46:00;12.57;;;7.93;;
20146;SDS011;10234;50.856;15.716;2023-01-29T07:48:29;13.70;;;7.80;;
20146;SDS011;10234;50.856;15.716;2023-01-29T07:50:56;8.97;;;6.07;;
20146;SDS011;10234;50.856;15.716;2023-01-29T07:53:26;10.47;;;6.07;;
20146;SDS011;10234;50.856;15.716;2023-01-29T07:55:53;8.60;;;5.53;;
20146;SDS011;10234;50.856;15.716;2023-01-29T07:58:21;8.90;;;5.77;;
20146;SDS011;10234;50.856;15.716;2023-01-29T08:00:48;9.20;;;6.10;;
20146;SDS011;10234;50.856;15.716;2023-01-29T08:03:16;7.30;;;5.87;;
20146;SDS011;10234;50.856;15.716;2023-01-29T08:05:45;9.50;;;6.23;;
20146;SDS011;10234;50.856;15.716;2023-01-29T08:08:12;10.47;;;6.33;;
20146;SDS011;10234;50.856;15.716;2023-01-29T08:10:40;8.73;;;6.57;;
20146;SDS011;10234;50.856;15.716;2023-01-29T08:13:07;9.73;;;6.80;;
20146;SDS011;10234;50.856;15.716;2023-01-29T08:15:34;14.18;;;8.43;;
20146;SDS011;10234;50.856;15.716;2023-01-29T08:18:01;17.57;;;9.70;;
20146;SDS011;10234;50.856;15.716;2023-01-29T08:20:28;17.17;;;10.70;;
20146;SDS011;10234;50.856;15.716;2023-01-29T08:23:00;14.87;;;9.40;;
20146;SDS011;10234;50.856;15.716;2023-01-29T08:25:28;19.20;;;11.60;;
20146;SDS011;10234;50.856;15.716;2023-01-29T08:27:56;15.57;;;9.38;;
20146;SDS011;10234;50.856;15.716;2023-01-29T08:30:24;13.67;;;8.30;;
20146;SDS011;10234;50.856;15.716;2023-01-29T08:32:51;15.68;;;10.30;;
20146;SDS011;10234;50.856;15.716;2023-01-29T08:35:18;19.95;;;12.23;;
20146;SDS011;10234;50.856;15.716;2023-01-29T08:37:50;22.97;;;16.27;;
20146;SDS011;10234;50.856;15.716;2023-01-29T08:40:19;21.85;;;15.23;;
20146;SDS011;10234;50.856;15.716;2023-01-29T08:42:46;17.23;;;9.38;;
20146;SDS011;10234;50.856;15.716;2023-01-29T08:45:13;14.73;;;8.98;;
20146;SDS011;10234;50.856;15.716;2023-01-29T08:47:43;11.77;;;7.43;;
20146;SDS011;10234;50.856;15.716;2023-01-29T08:50:11;19.23;;;10.43;;
20146;SDS011;10234;50.856;15.716;2023-01-29T08:52:38;11.40;;;6.63;;
20146;SDS011;10234;50.856;15.716;2023-01-29T08:55:05;17.58;;;10.38;;
20146;SDS011;10234;50.856;15.716;2023-01-29T08:57:34;22.98;;;10.52;;
20146;SDS011;10234;50.856;15.716;2023-01-29T09:00:02;24.85;;;12.05;;
20146;SDS011;10234;50.856;15.716;2023-01-29T09:02:30;20.95;;;11.30;;
20146;SDS011;10234;50.856;15.716;2023-01-29T09:04:57;18.45;;;11.13;;
20146;SDS011;10234;50.856;15.716;2023-01-29T09:07:24;11.38;;;6.43;;
20146;SDS011;10234;50.856;15.716;2023-01-29T09:09:50;9.95;;;6.57;;
20146;SDS011;10234;50.856;15.716;2023-01-29T09:12:17;13.73;;;8.68;;
20146;SDS011;10234;50.856;15.716;2023-01-29T09:14:46;18.48;;;8.63;;
20146;SDS011;10234;50.856;15.716;2023-01-29T09:17:12;11.00;;;7.70;;
20146;SDS011;10234;50.856;15.716;2023-01-29T09:19:39;15.23;;;8.93;;
20146;SDS011;10234;50.856;15.716;2023-01-29T09:22:06;17.63;;;9.02;;
20146;SDS011;10234;50.856;15.716;2023-01-29T09:24:33;13.05;;;8.98;;
20146;SDS011;10234;50.856;15.716;2023-01-29T09:27:00;12.90;;;8.90;;
20146;SDS011;10234;50.856;15.716;2023-01-29T09:29:29;12.70;;;8.88;;
20146;SDS011;10234;50.856;15.716;2023-01-29T09:31:57;13.02;;;8.43;;
20146;SDS011;10234;50.856;15.716;2023-01-29T09:34:24;14.93;;;8.40;;
20146;SDS011;10234;50.856;15.716;2023-01-29T09:36:51;12.50;;;8.38;;
20146;SDS011;10234;50.856;15.716;2023-01-29T09:39:18;17.98;;;9.23;;
20146;SDS011;10234;50.856;15.716;2023-01-29T09:41:47;22.55;;;18.83;;
20146;SDS011;10234;50.856;15.716;2023-01-29T09:44:18;19.23;;;12.80;;
20146;SDS011;10234;50.856;15.716;2023-01-29T09:46:51;19.13;;;13.82;;
20146;SDS011;10234;50.856;15.716;2023-01-29T09:49:23;24.92;;;16.27;;
20146;SDS011;10234;50.856;15.716;2023-01-29T09:51:52;26.23;;;17.08;;
20146;SDS011;10234;50.856;15.716;2023-01-29T09:54:24;32.38;;;19.60;;
20146;SDS011;10234;50.856;15.716;2023-01-29T09:56:56;59.72;;;33.83;;
20146;SDS011;10234;50.856;15.716;2023-01-29T09:59:24;61.25;;;33.13;;
20146;SDS011;10234;50.856;15.716;2023-01-29T10:01:58;81.65;;;36.17;;
20146;SDS011;10234;50.856;15.716;2023-01-29T10:04:37;95.28;;;39.58;;
20146;SDS011;10234;50.856;15.716;2023-01-29T10:07:36;106.85;;;49.10;;
20146;SDS011;10234;50.856;15.716;2023-01-29T10:10:22;55.17;;;29.38;;
20146;SDS011;10234;50.856;15.716;2023-01-29T10:12:59;39.95;;;22.02;;
20146;SDS011;10234;50.856;15.716;2023-01-29T10:15:34;34.35;;;20.48;;
20146;SDS011;10234;50.856;15.716;2023-01-29T10:18:17;22.25;;;16.02;;
20146;SDS011;10234;50.856;15.716;2023-01-29T10:21:07;16.67;;;11.05;;
20146;SDS011;10234;50.856;15.716;2023-01-29T10:23:49;19.90;;;13.43;;
20146;SDS011;10234;50.856;15.716;2023-01-29T10:26:19;23.30;;;14.40;;
20146;SDS011;10234;50.856;15.716;2023-01-29T10:28:51;28.63;;;16.33;;
20146;SDS011;10234;50.856;15.716;2023-01-29T10:31:23;23.83;;;14.90;;
20146;SDS011;10234;50.856;15.716;2023-01-29T10:33:57;33.67;;;16.33;;
20146;SDS011;10234;50.856;15.716;2023-01-29T10:36:33;25.95;;;15.50;;
20146;SDS011;10234;50.856;15.716;2023-01-29T10:39:03;26.85;;;15.45;;
20146;SDS011;10234;50.856;15.716;2023-01-29T10:41:40;23.30;;;15.88;;
20146;SDS011;10234;50.856;15.716;2023-01-29T10:44:16;25.73;;;16.63;;
20146;SDS011;10234;50.856;15.716;2023-01-29T10:46:57;30.88;;;19.02;;
20146;SDS011;10234;50.856;15.716;2023-01-29T10:49:36;28.35;;;16.05;;
20146;SDS011;10234;50.856;15.716;2023-01-29T10:52:20;26.85;;;16.42;;
20146;SDS011;10234;50.856;15.716;2023-01-29T10:55:01;25.58;;;15.82;;
20146;SDS011;10234;50.856;15.716;2023-01-29T10:57:39;25.85;;;15.52;;
20146;SDS011;10234;50.856;15.716;2023-01-29T11:00:18;27.40;;;16.17;;
20146;SDS011;10234;50.856;15.716;2023-01-29T11:02:48;25.65;;;15.77;;
20146;SDS011;10234;50.856;15.716;2023-01-29T11:05:22;29.23;;;16.58;;
20146;SDS011;10234;50.856;15.716;2023-01-29T11:07:59;29.55;;;17.63;;
20146;SDS011;10234;50.856;15.716;2023-01-29T11:10:29;30.30;;;18.15;;
20146;SDS011;10234;50.856;15.716;2023-01-29T11:13:01;28.75;;;17.02;;
20146;SDS011;10234;50.856;15.716;2023-01-29T11:15:30;29.67;;;16.63;;
20146;SDS011;10234;50.856;15.716;2023-01-29T11:18:05;30.40;;;18.38;;
20146;SDS011;10234;50.856;15.716;2023-01-29T11:20:37;28.75;;;17.33;;
20146;SDS011;10234;50.856;15.716;2023-01-29T11:23:17;29.05;;;16.73;;
20146;SDS011;10234;50.856;15.716;2023-01-29T11:25:50;26.05;;;16.63;;
20146;SDS011;10234;50.856;15.716;2023-01-29T11:31:00;25.02;;;16.10;;
20146;SDS011;10234;50.856;15.716;2023-01-29T11:33:28;27.05;;;15.73;;
20146;SDS011;10234;50.856;15.716;2023-01-29T11:35:55;26.98;;;17.33;;
20146;SDS011;10234;50.856;15.716;2023-01-29T11:38:24;30.95;;;18.48;;
20146;SDS011;10234;50.856;15.716;2023-01-29T11:40:53;27.70;;;15.75;;
20146;SDS011;10234;50.856;15.716;2023-01-29T11:43:31;24.95;;;16.50;;
20146;SDS011;10234;50.856;15.716;2023-01-29T11:45:59;26.83;;;16.15;;
20146;SDS011;10234;50.856;15.716;2023-01-29T11:48:33;29.30;;;17.13;;
20146;SDS011;10234;50.856;15.716;2023-01-29T11:51:07;30.20;;;19.25;;
20146;SDS011;10234;50.856;15.716;2023-01-29T11:53:38;27.50;;;18.42;;
20146;SDS011;10234;50.856;15.716;2023-01-29T11:56:15;24.15;;;15.48;;
20146;SDS011;10234;50.856;15.716;2023-01-29T11:58:45;34.72;;;22.17;;
20146;SDS011;10234;50.856;15.716;2023-01-29T12:01:14;27.40;;;17.83;;
20146;SDS011;10234;50.856;15.716;2023-01-29T12:03:43;28.65;;;17.40;;
20146;SDS011;10234;50.856;15.716;2023-01-29T12:06:16;30.50;;;20.48;;
20146;SDS011;10234;50.856;15.716;2023-01-29T12:08:51;29.42;;;19.20;;
20146;SDS011;10234;50.856;15.716;2023-01-29T12:11:26;31.67;;;19.10;;
20146;SDS011;10234;50.856;15.716;2023-01-29T12:13:55;33.80;;;19.42;;
20146;SDS011;10234;50.856;15.716;2023-01-29T12:16:24;34.17;;;20.60;;
20146;SDS011;10234;50.856;15.716;2023-01-29T12:18:55;26.30;;;16.15;;
20146;SDS011;10234;50.856;15.716;2023-01-29T12:21:31;25.00;;;16.02;;
20146;SDS011;10234;50.856;15.716;2023-01-29T12:24:05;28.42;;;19.67;;
20146;SDS011;10234;50.856;15.716;2023-01-29T12:26:42;27.58;;;19.00;;
20146;SDS011;10234;50.856;15.716;2023-01-29T12:29:18;31.40;;;20.63;;
20146;SDS011;10234;50.856;15.716;2023-01-29T12:31:53;38.15;;;23.88;;
20146;SDS011;10234;50.856;15.716;2023-01-29T12:34:26;37.90;;;24.98;;
20146;SDS011;10234;50.856;15.716;2023-01-29T12:37:02;33.47;;;22.10;;
20146;SDS011;10234;50.856;15.716;2023-01-29T12:39:39;28.42;;;19.23;;
20146;SDS011;10234;50.856;15.716;2023-01-29T12:42:08;31.80;;;19.27;;
20146;SDS011;10234;50.856;15.716;2023-01-29T12:44:38;26.95;;;17.98;;
20146;SDS011;10234;50.856;15.716;2023-01-29T12:47:11;28.15;;;17.55;;
20146;SDS011;10234;50.856;15.716;2023-01-29T12:49:44;28.13;;;18.10;;
20146;SDS011;10234;50.856;15.716;2023-01-29T12:52:16;25.58;;;16.98;;
20146;SDS011;10234;50.856;15.716;2023-01-29T12:54:52;27.85;;;18.60;;
20146;SDS011;10234;50.856;15.716;2023-01-29T12:57:23;26.40;;;17.30;;
20146;SDS011;10234;50.856;15.716;2023-01-29T13:00:04;30.52;;;17.95;;
20146;SDS011;10234;50.856;15.716;2023-01-29T13:02:38;30.35;;;16.92;;
20146;SDS011;10234;50.856;15.716;2023-01-29T13:05:14;30.20;;;18.17;;
20146;SDS011;10234;50.856;15.716;2023-01-29T13:07:46;24.02;;;15.63;;
20146;SDS011;10234;50.856;15.716;2023-01-29T13:10:19;26.27;;;16.05;;
20146;SDS011;10234;50.856;15.716;2023-01-29T13:12:51;20.77;;;13.68;;
20146;SDS011;10234;50.856;15.716;2023-01-29T13:15:22;23.50;;;15.30;;
20146;SDS011;10234;50.856;15.716;2023-01-29T13:17:54;22.50;;;14.43;;
20146;SDS011;10234;50.856;15.716;2023-01-29T13:20:28;20.63;;;13.88;;
20146;SDS011;10234;50.856;15.716;2023-01-29T13:22:58;18.60;;;12.93;;
20146;SDS011;10234;50.856;15.716;2023-01-29T13:25:30;23.40;;;14.25;;
20146;SDS011;10234;50.856;15.716;2023-01-29T13:27:57;25.02;;;16.30;;
20146;SDS011;10234;50.856;15.716;2023-01-29T13:30:28;35.22;;;20.13;;
20146;SDS011;10234;50.856;15.716;2023-01-29T13:32:56;30.95;;;20.38;;
20146;SDS011;10234;50.856;15.716;2023-01-29T13:35:33;28.17;;;17.52;;
20146;SDS011;10234;50.856;15.716;2023-01-29T13:38:02;22.80;;;15.77;;
20146;SDS011;10234;50.856;15.716;2023-01-29T13:40:32;26.70;;;17.40;;
20146;SDS011;10234;50.856;15.716;2023-01-29T13:43:00;27.33;;;17.50;;
20146;SDS011;10234;50.856;15.716;2023-01-29T13:45:31;29.40;;;17.00;;
20146;SDS011;10234;50.856;15.716;2023-01-29T13:48:08;22.48;;;16.00;;
20146;SDS011;10234;50.856;15.716;2023-01-29T13:50:37;28.80;;;16.83;;
20146;SDS011;10234;50.856;15.716;2023-01-29T13:53:07;27.38;;;16.35;;
20146;SDS011;10234;50.856;15.716;2023-01-29T13:55:48;24.77;;;14.73;;
20146;SDS011;10234;50.856;15.716;2023-01-29T13:58:15;22.52;;;14.90;;
20146;SDS011;10234;50.856;15.716;2023-01-29T14:00:47;25.10;;;14.23;;
20146;SDS011;10234;50.856;15.716;2023-01-29T14:06:08;21.83;;;14.35;;
20146;SDS011;10234;50.856;15.716;2023-01-29T14:08:36;24.02;;;16.67;;
20146;SDS011;10234;50.856;15.716;2023-01-29T14:13:59;24.25;;;15.35;;
20146;SDS011;10234;50.856;15.716;2023-01-29T14:16:31;24.38;;;15.38;;
20146;SDS011;10234;50.856;15.716;2023-01-29T14:19:00;25.40;;;16.42;;
20146;SDS011;10234;50.856;15.716;2023-01-29T14:21:29;26.85;;;15.95;;
20146;SDS011;10234;50.856;15.716;2023-01-29T14:23:58;23.67;;;14.93;;
20146;SDS011;10234;50.856;15.716;2023-01-29T14:26:39;26.05;;;16.13;;
20146;SDS011;10234;50.856;15.716;2023-01-29T14:29:15;24.50;;;16.35;;
20146;SDS011;10234;50.856;15.716;2023-01-29T14:31:46;25.48;;;14.85;;
20146;SDS011;10234;50.856;15.716;2023-01-29T14:34:19;25.65;;;17.20;;
20146;SDS011;10234;50.856;15.716;2023-01-29T14:36:53;33.42;;;20.05;;
20146;SDS011;10234;50.856;15.716;2023-01-29T14:39:30;29.83;;;18.10;;
20146;SDS011;10234;50.856;15.716;2023-01-29T14:42:03;36.10;;;19.48;;
20146;SDS011;10234;50.856;15.716;2023-01-29T14:44:47;32.10;;;19.67;;
20146;SDS011;10234;50.856;15.716;2023-01-29T14:53:20;40.63;;;22.92;;
20146;SDS011;10234;50.856;15.716;2023-01-29T14:55:54;36.90;;;23.35;;
20146;SDS011;10234;50.856;15.716;2023-01-29T14:58:26;42.15;;;23.83;;
20146;SDS011;10234;50.856;15.716;2023-01-29T15:01:00;37.72;;;23.60;;
20146;SDS011;10234;50.856;15.716;2023-01-29T15:03:34;32.90;;;20.55;;
20146;SDS011;10234;50.856;15.716;2023-01-29T15:06:06;31.25;;;19.35;;